createdAt,value
2022-11-22T00:00:27.778Z,20.00
2022-11-22T00:02:58.437Z,16.60
2022-11-22T00:05:29.230Z,10.30
2022-11-22T00:07:59.928Z,12.50
2022-11-22T00:10:30.658Z,11.20
2022-11-22T00:13:01.611Z,13.40
2022-11-22T00:15:32.310Z,12.50
2022-11-22T00:18:03.080Z,12.90
2022-11-22T00:20:34.442Z,17.80
2022-11-22T00:23:05.192Z,16.60
2022-11-22T00:25:35.954Z,13.70
2022-11-22T00:28:06.979Z,13.60
2022-11-22T00:30:37.653Z,12.70
2022-11-22T00:33:08.357Z,12.90
2022-11-22T00:35:39.024Z,11.40
2022-11-22T00:38:09.787Z,13.60
2022-11-22T00:40:40.409Z,11.60
2022-11-22T00:43:10.985Z,15.10
2022-11-22T00:45:43.198Z,23.20
2022-11-22T00:48:13.892Z,15.60
2022-11-22T00:50:44.485Z,13.20
2022-11-22T00:53:15.173Z,11.80
2022-11-22T00:55:45.786Z,15.10
2022-11-22T00:58:16.870Z,14.70
2022-11-22T01:00:49.990Z,15.30
2022-11-22T01:03:24.205Z,15.00
2022-11-22T01:05:54.828Z,13.30
2022-11-22T01:08:25.885Z,14.90
2022-11-22T01:10:59.796Z,20.80
2022-11-22T01:13:31.507Z,14.70
2022-11-22T01:16:04.578Z,13.70
2022-11-22T01:18:35.875Z,14.00
2022-11-22T01:21:07.053Z,11.90
2022-11-22T01:23:38.371Z,12.10
2022-11-22T01:26:11.143Z,8.40
2022-11-22T01:28:41.838Z,5.70
2022-11-22T01:31:12.892Z,17.50
2022-11-22T01:33:43.569Z,14.00
2022-11-22T01:36:14.285Z,8.60
2022-11-22T01:38:44.919Z,7.90
2022-11-22T01:41:15.708Z,7.60
2022-11-22T01:43:46.309Z,11.20
2022-11-22T01:46:27.939Z,12.00
2022-11-22T01:49:03.364Z,13.40
2022-11-22T01:51:39.596Z,15.60
2022-11-22T01:54:13.775Z,11.80
2022-11-22T01:56:48.691Z,9.10
2022-11-22T01:59:26.395Z,10.00
2022-11-22T02:01:58.012Z,9.50
2022-11-22T02:04:33.706Z,7.70
2022-11-22T02:07:09.155Z,6.60
2022-11-22T02:09:41.819Z,11.80
2022-11-22T02:12:13.271Z,10.40
2022-11-22T02:14:44.404Z,13.90
2022-11-22T02:17:15.108Z,12.30
2022-11-22T02:19:47.677Z,11.50
2022-11-22T02:22:30.108Z,10.80
2022-11-22T02:25:13.054Z,12.30
2022-11-22T02:27:44.262Z,8.90
2022-11-22T02:30:15.467Z,9.80
2022-11-22T02:32:46.774Z,16.20
2022-11-22T02:35:22.670Z,13.50
2022-11-22T02:37:57.478Z,12.90
2022-11-22T02:40:30.143Z,12.20
2022-11-22T02:43:04.268Z,10.50
2022-11-22T02:45:35.041Z,11.20
2022-11-22T02:48:11.472Z,13.90
2022-11-22T02:50:42.716Z,9.50
2022-11-22T02:53:14.375Z,13.80
2022-11-22T02:55:45.102Z,19.80
2022-11-22T02:58:15.679Z,13.90
2022-11-22T03:00:46.423Z,15.40
2022-11-22T03:03:17.402Z,12.60
2022-11-22T03:05:48.077Z,13.00
2022-11-22T03:08:18.975Z,10.10
2022-11-22T03:10:49.763Z,6.80
2022-11-22T03:13:20.391Z,9.10
2022-11-22T03:15:51.303Z,11.20
2022-11-22T03:18:21.922Z,17.90
2022-11-22T03:20:52.570Z,13.50
2022-11-22T03:23:23.321Z,12.30
2022-11-22T03:25:54.145Z,10.00
2022-11-22T03:28:26.880Z,11.20
2022-11-22T03:30:58.742Z,10.40
2022-11-22T03:33:29.434Z,14.80
2022-11-22T03:36:00.566Z,10.40
2022-11-22T03:38:31.366Z,13.00
2022-11-22T03:41:02.082Z,11.00
2022-11-22T03:43:32.723Z,12.60
2022-11-22T03:46:03.424Z,11.80
2022-11-22T03:48:34.580Z,12.10
2022-11-22T03:51:09.355Z,9.10
2022-11-22T03:53:40.043Z,18.70
2022-11-22T03:56:10.890Z,14.90
2022-11-22T03:58:41.538Z,12.90
2022-11-22T04:01:16.575Z,11.60
2022-11-22T04:03:48.034Z,11.50
2022-11-22T04:06:18.934Z,10.80
2022-11-22T04:08:49.885Z,9.30
2022-11-22T04:11:20.606Z,12.50
2022-11-22T04:14:09.059Z,9.80
2022-11-22T04:16:40.117Z,16.20
2022-11-22T04:19:11.191Z,11.60
2022-11-22T04:21:41.972Z,11.70
2022-11-22T04:24:27.584Z,10.50
2022-11-22T04:26:59.268Z,8.30
2022-11-22T04:29:30.187Z,11.30
2022-11-22T04:32:18.908Z,8.50
2022-11-22T04:34:49.590Z,9.40
2022-11-22T04:37:20.267Z,9.20
2022-11-22T04:39:50.929Z,16.10
2022-11-22T04:42:39.464Z,13.70
2022-11-22T04:45:12.478Z,8.90
2022-11-22T04:48:01.647Z,12.30
2022-11-22T04:50:51.123Z,8.00
2022-11-22T04:53:21.815Z,9.50
2022-11-22T04:55:52.750Z,8.60
2022-11-22T04:58:23.946Z,9.10
2022-11-22T05:00:54.846Z,11.90
2022-11-22T05:03:25.719Z,13.10
2022-11-22T05:05:56.578Z,10.10
2022-11-22T05:08:27.252Z,11.70
2022-11-22T05:10:57.896Z,7.90
2022-11-22T05:13:31.037Z,12.00
2022-11-22T05:18:32.331Z,10.10
2022-11-22T05:21:07.232Z,7.10
2022-11-22T05:23:56.142Z,11.70
2022-11-22T05:26:29.128Z,16.10
2022-11-22T05:29:00.765Z,12.60
2022-11-22T05:31:33.690Z,10.20
2022-11-22T05:34:05.279Z,10.10
2022-11-22T05:36:37.259Z,9.20
2022-11-22T05:39:08.054Z,8.10
2022-11-22T05:41:38.719Z,7.60
2022-11-22T05:44:09.852Z,10.60
2022-11-22T05:46:40.535Z,10.20
2022-11-22T05:49:11.301Z,15.50
2022-11-22T05:51:41.974Z,11.20
2022-11-22T05:54:13.178Z,10.40
2022-11-22T05:56:43.808Z,8.40
2022-11-22T05:59:14.628Z,8.80
2022-11-22T06:01:45.319Z,10.80
2022-11-22T06:04:16.126Z,7.90
2022-11-22T06:06:49.126Z,7.20
2022-11-22T06:09:19.829Z,13.90
2022-11-22T06:11:50.587Z,11.40
2022-11-22T06:14:21.375Z,9.60
2022-11-22T06:16:53.224Z,8.50
2022-11-22T06:19:23.939Z,16.80
2022-11-22T06:21:54.523Z,11.10
2022-11-22T06:24:25.213Z,10.40
2022-11-22T06:26:55.847Z,10.30
2022-11-22T06:29:26.721Z,13.30
2022-11-22T06:32:03.213Z,11.20
2022-11-22T06:34:34.524Z,9.00
2022-11-22T06:37:05.330Z,10.30
2022-11-22T06:39:36.460Z,7.90
2022-11-22T06:42:07.550Z,9.20
2022-11-22T06:44:38.186Z,6.60
2022-11-22T06:47:10.251Z,5.40
2022-11-22T06:49:40.870Z,12.40
2022-11-22T06:52:11.518Z,11.20
2022-11-22T06:54:42.241Z,10.70
2022-11-22T06:57:15.816Z,9.40
2022-11-22T06:59:46.413Z,8.50
2022-11-22T07:02:17.085Z,10.20
2022-11-22T07:05:09.819Z,7.40
2022-11-22T07:07:38.584Z,16.10
2022-11-22T07:10:10.828Z,13.10
2022-11-22T07:12:41.704Z,12.00
2022-11-22T07:15:13.734Z,11.50
2022-11-22T07:17:44.628Z,10.80
2022-11-22T07:20:15.859Z,8.60
2022-11-22T07:22:48.260Z,9.50
2022-11-22T07:25:19.296Z,6.60
2022-11-22T07:27:50.017Z,14.40
2022-11-22T07:30:20.884Z,13.90
2022-11-22T07:32:51.752Z,10.00
2022-11-22T07:35:22.443Z,8.90
2022-11-22T07:37:53.197Z,10.60
2022-11-22T07:40:23.921Z,11.90
2022-11-22T07:42:58.420Z,7.90
2022-11-22T07:45:29.575Z,15.30
2022-11-22T07:48:02.223Z,10.00
2022-11-22T07:50:32.883Z,9.40
2022-11-22T07:53:03.937Z,8.00
2022-11-22T07:55:34.706Z,12.00
2022-11-22T07:58:05.806Z,10.50
2022-11-22T08:00:36.789Z,10.70
2022-11-22T08:03:09.563Z,12.90
2022-11-22T08:05:40.229Z,11.70
2022-11-22T08:08:10.970Z,7.00
2022-11-22T08:10:41.562Z,11.90
2022-11-22T08:13:12.283Z,10.50
2022-11-22T08:15:43.025Z,13.10
2022-11-22T08:18:13.813Z,11.20
2022-11-22T08:20:44.618Z,12.40
2022-11-22T08:23:15.335Z,11.90
2022-11-22T08:25:46.004Z,9.50
2022-11-22T08:28:16.740Z,11.00
2022-11-22T08:30:47.546Z,10.80
2022-11-22T08:33:18.326Z,10.80
2022-11-22T08:35:52.081Z,11.10
2022-11-22T08:38:22.849Z,11.30
2022-11-22T08:40:53.499Z,13.90
2022-11-22T08:43:24.386Z,12.60
2022-11-22T08:45:58.313Z,12.00
2022-11-22T08:48:30.078Z,12.60
2022-11-22T08:51:02.559Z,14.10
2022-11-22T08:53:35.057Z,13.70
2022-11-22T08:56:09.647Z,14.00
2022-11-22T08:58:41.005Z,13.20
2022-11-22T09:01:14.141Z,14.40
2022-11-22T09:03:45.707Z,9.90
2022-11-22T09:09:38.600Z,11.60
2022-11-22T09:12:00.463Z,10.80
2022-11-22T09:14:31.117Z,7.00
2022-11-22T09:17:01.803Z,13.10
2022-11-22T09:19:32.925Z,11.40
2022-11-22T09:22:03.819Z,9.40
2022-11-22T09:24:34.532Z,10.20
2022-11-22T09:27:05.500Z,10.40
2022-11-22T09:29:37.391Z,9.70
2022-11-22T09:32:12.264Z,12.90
2022-11-22T09:34:43.005Z,7.20
2022-11-22T09:37:17.278Z,11.90
2022-11-22T09:39:48.721Z,11.20
2022-11-22T09:42:38.007Z,8.70
2022-11-22T09:45:35.699Z,7.30
2022-11-22T09:48:21.765Z,10.00
2022-11-22T09:51:01.841Z,8.80
2022-11-22T09:53:39.173Z,10.60
2022-11-22T09:56:14.559Z,10.40
2022-11-22T09:58:48.808Z,9.90
2022-11-22T10:01:24.157Z,9.60
2022-11-22T10:04:01.538Z,7.10
2022-11-22T10:06:35.784Z,8.60
2022-11-22T10:09:22.064Z,9.20
2022-11-22T10:12:00.899Z,7.50
2022-11-22T10:14:42.720Z,5.10
2022-11-22T10:17:29.413Z,9.40
2022-11-22T10:20:08.622Z,6.20
2022-11-22T10:22:39.614Z,9.00
2022-11-22T10:25:18.219Z,8.00
2022-11-22T10:27:57.618Z,8.30
2022-11-22T10:30:34.771Z,5.30
2022-11-22T10:33:14.250Z,7.50
2022-11-22T10:36:17.642Z,9.20
2022-11-22T10:39:18.645Z,11.10
2022-11-22T10:42:08.797Z,10.00
2022-11-22T10:44:50.370Z,12.00
2022-11-22T10:47:38.864Z,8.50
2022-11-22T10:50:18.270Z,9.60
2022-11-22T10:52:59.118Z,8.30
2022-11-22T10:55:42.704Z,13.10
2022-11-22T10:58:23.604Z,6.40
2022-11-22T11:01:04.789Z,8.20
2022-11-22T11:03:38.566Z,8.70
2022-11-22T11:06:24.369Z,6.70
2022-11-22T11:09:54.859Z,8.30
2022-11-22T11:11:55.745Z,11.30
2022-11-22T11:14:33.139Z,8.70
2022-11-22T11:17:06.423Z,8.50
2022-11-22T11:22:30.421Z,10.10
2022-11-22T11:25:40.380Z,11.50
2022-11-22T11:28:17.544Z,7.50
2022-11-22T11:30:51.535Z,10.40
2022-11-22T11:33:27.045Z,9.40
2022-11-22T11:36:03.624Z,11.60
2022-11-22T11:38:38.373Z,11.20
2022-11-22T11:41:24.043Z,10.00
2022-11-22T11:43:55.862Z,10.00
2022-11-22T11:46:32.137Z,8.70
2022-11-22T11:49:15.099Z,8.80
2022-11-22T11:51:47.752Z,9.60
2022-11-22T11:54:21.906Z,9.00
2022-11-22T11:56:56.538Z,9.60
2022-11-22T11:59:43.673Z,12.50
2022-11-22T12:02:17.974Z,11.50
2022-11-22T12:04:53.299Z,13.30
2022-11-22T12:07:27.130Z,11.70
2022-11-22T12:09:58.686Z,9.60
2022-11-22T12:12:44.781Z,8.30
2022-11-22T12:15:23.814Z,12.10
2022-11-22T12:20:38.315Z,11.60
2022-11-22T12:23:19.033Z,16.90
2022-11-22T12:25:52.289Z,15.00
2022-11-22T12:28:24.820Z,12.70
2022-11-22T12:31:02.819Z,12.90
2022-11-22T12:33:39.103Z,12.60
2022-11-22T12:36:16.391Z,13.00
2022-11-22T12:38:48.948Z,10.70
2022-11-22T12:41:23.142Z,8.70
2022-11-22T12:43:56.952Z,12.20
2022-11-22T12:46:30.664Z,11.20
2022-11-22T12:49:05.903Z,10.90
2022-11-22T12:51:42.527Z,13.60
2022-11-22T12:54:17.555Z,14.10
2022-11-22T12:56:53.146Z,12.40
2022-11-22T12:59:35.219Z,10.40
2022-11-22T13:02:17.383Z,10.60
2022-11-22T13:04:53.824Z,11.30
2022-11-22T13:07:38.223Z,12.50
2022-11-22T13:10:29.949Z,12.00
2022-11-22T13:13:03.869Z,12.40
2022-11-22T13:15:37.687Z,11.20
2022-11-22T13:18:15.941Z,9.70
2022-11-22T13:20:57.218Z,12.30
2022-11-22T13:23:45.888Z,10.80
2022-11-22T13:26:24.590Z,12.10
2022-11-22T13:28:56.053Z,13.00
2022-11-22T13:31:26.864Z,15.80
2022-11-22T13:34:02.387Z,14.30
2022-11-22T13:36:42.144Z,13.10
2022-11-22T13:39:25.970Z,14.00
2022-11-22T13:42:06.265Z,12.70
2022-11-22T13:44:52.857Z,13.20
2022-11-22T13:47:41.970Z,13.10
2022-11-22T13:50:57.727Z,11.70
2022-11-22T13:53:31.433Z,11.90
2022-11-22T13:56:40.305Z,13.50
2022-11-22T13:59:18.315Z,11.60
2022-11-22T14:02:22.291Z,15.50
2022-11-22T14:04:57.509Z,13.60
2022-11-22T14:07:37.621Z,12.80
2022-11-22T14:10:27.982Z,15.00
2022-11-22T14:13:16.141Z,13.20
2022-11-22T14:16:08.079Z,17.50
2022-11-22T14:18:53.895Z,13.80
2022-11-22T14:21:46.381Z,13.40
2022-11-22T14:24:31.298Z,15.30
2022-11-22T14:27:17.467Z,14.10
2022-11-22T14:30:14.171Z,12.40
2022-11-22T14:33:02.111Z,17.40
2022-11-22T14:35:40.393Z,13.40
2022-11-22T14:38:41.042Z,14.20
2022-11-22T14:41:45.971Z,15.80
2022-11-22T14:44:25.969Z,11.70
2022-11-22T14:47:04.040Z,15.10
2022-11-22T14:49:45.934Z,14.00
2022-11-22T14:52:23.955Z,13.80
2022-11-22T14:55:06.061Z,12.30
2022-11-22T14:57:38.122Z,14.60
2022-11-22T15:00:19.324Z,16.50
2022-11-22T15:03:28.689Z,14.10
2022-11-22T15:09:13.164Z,12.10
2022-11-22T15:09:53.952Z,15.90
2022-11-22T15:13:06.620Z,15.10
2022-11-22T15:57:27.998Z,18.00
2022-11-22T15:59:59.864Z,27.30
2022-11-22T16:02:32.401Z,20.90
2022-11-22T16:06:03.488Z,18.30
2022-11-22T16:07:58.380Z,12.40
2022-11-22T16:10:37.287Z,18.50
2022-11-22T16:13:28.367Z,18.20
2022-11-22T16:16:18.622Z,17.90
2022-11-22T16:18:50.825Z,15.70
2022-11-22T16:21:30.261Z,14.80
2022-11-22T16:24:19.203Z,13.00
2022-11-22T16:27:11.335Z,24.40
2022-11-22T16:29:54.626Z,20.90
2022-11-22T16:32:26.156Z,22.10
2022-11-22T16:35:21.775Z,20.80
2022-11-22T16:37:51.589Z,22.10
2022-11-22T16:40:22.549Z,19.80
2022-11-22T16:42:53.598Z,21.30
2022-11-22T16:45:24.965Z,19.60
2022-11-22T16:48:16.540Z,21.70
2022-11-22T16:50:47.337Z,19.10
2022-11-22T16:53:18.563Z,24.00
2022-11-22T16:55:50.194Z,19.40
2022-11-22T16:58:23.475Z,22.60
2022-11-22T17:00:55.023Z,23.20
2022-11-22T17:03:29.670Z,19.20
2022-11-22T17:06:00.470Z,18.00
2022-11-22T17:08:31.235Z,18.90
2022-11-22T17:11:01.843Z,17.30
2022-11-22T17:13:32.558Z,16.50
2022-11-22T17:16:03.193Z,16.60
2022-11-22T17:18:33.858Z,16.00
2022-11-22T17:21:05.926Z,23.30
2022-11-22T17:23:39.353Z,20.00
2022-11-22T17:26:12.482Z,15.40
2022-11-22T17:28:43.249Z,18.80
2022-11-22T17:31:15.656Z,20.10
2022-11-22T17:33:50.023Z,17.40
2022-11-22T17:36:29.418Z,19.10
2022-11-22T17:39:01.263Z,17.20
2022-11-22T17:41:32.165Z,20.20
2022-11-22T17:44:03.726Z,16.00
2022-11-22T17:46:38.212Z,17.60
2022-11-22T17:49:14.155Z,16.80
2022-11-22T17:51:47.609Z,25.60
2022-11-22T17:54:18.331Z,19.80
2022-11-22T17:56:49.174Z,21.00
2022-11-22T17:59:19.879Z,22.80
2022-11-22T18:01:50.558Z,20.60
2022-11-22T18:04:21.314Z,19.40
2022-11-22T18:06:52.185Z,19.10
2022-11-22T18:09:22.808Z,17.20
2022-11-22T18:11:53.511Z,13.30
2022-11-22T18:14:24.481Z,20.50
2022-11-22T18:16:55.474Z,17.70
2022-11-22T18:19:26.114Z,15.80
2022-11-22T18:21:56.803Z,18.00
2022-11-22T18:24:27.400Z,14.30
2022-11-22T18:26:58.177Z,8.60
2022-11-22T18:29:42.210Z,22.50
2022-11-22T18:32:13.788Z,19.30
2022-11-22T18:34:44.494Z,23.00
2022-11-22T18:37:15.075Z,18.60
2022-11-22T18:39:45.834Z,17.30
2022-11-22T18:42:17.843Z,18.30
2022-11-22T18:44:48.530Z,19.80
2022-11-22T18:47:19.219Z,19.30
2022-11-22T18:49:49.912Z,15.30
2022-11-22T18:52:23.000Z,16.20
2022-11-22T18:57:23.066Z,15.60
2022-11-22T18:59:53.784Z,17.30
2022-11-22T19:02:26.056Z,18.10
2022-11-22T19:04:57.230Z,22.40
2022-11-22T19:07:27.937Z,18.00
2022-11-22T19:09:59.226Z,20.00
2022-11-22T19:12:30.135Z,20.70
2022-11-22T19:15:00.974Z,21.00
2022-11-22T19:17:31.599Z,20.10
2022-11-22T19:20:02.430Z,19.00
2022-11-22T19:22:33.236Z,19.80
2022-11-22T19:25:03.804Z,11.10
2022-11-22T19:27:34.428Z,22.50
2022-11-22T19:30:05.917Z,18.80
2022-11-22T19:32:36.658Z,17.20
2022-11-22T19:35:09.016Z,17.10
2022-11-22T19:37:39.670Z,24.90
2022-11-22T19:40:12.629Z,20.80
2022-11-22T19:45:13.489Z,18.60
2022-11-22T19:47:44.880Z,18.40
2022-11-22T19:50:15.534Z,20.40
2022-11-22T19:52:46.198Z,14.80
2022-11-22T19:55:16.943Z,26.90
2022-11-22T19:57:47.641Z,17.70
2022-11-22T20:00:19.766Z,18.30
2022-11-22T20:02:50.482Z,25.00
2022-11-22T20:05:21.433Z,14.90
2022-11-22T20:07:52.129Z,23.10
2022-11-22T20:10:22.902Z,22.30
2022-11-22T20:12:53.708Z,20.00
2022-11-22T20:15:24.542Z,20.30
2022-11-22T20:17:56.495Z,19.80
2022-11-22T20:20:27.128Z,20.90
2022-11-22T20:22:58.096Z,26.70
2022-11-22T20:25:28.723Z,24.50
2022-11-22T20:27:59.508Z,23.10
2022-11-22T20:30:30.195Z,28.70
2022-11-22T20:33:00.876Z,24.20
2022-11-22T20:35:31.532Z,24.20
2022-11-22T20:38:02.790Z,26.80
2022-11-22T20:40:33.520Z,22.10
2022-11-22T20:43:04.142Z,23.70
2022-11-22T20:45:34.889Z,21.00
2022-11-22T20:48:06.069Z,22.60
2022-11-22T20:50:38.315Z,17.80
2022-11-22T20:53:08.924Z,21.70
2022-11-22T20:55:41.004Z,25.00
2022-11-22T20:58:11.594Z,24.00
2022-11-22T21:00:42.418Z,20.20
2022-11-22T21:03:13.276Z,19.90
2022-11-22T21:05:45.691Z,22.00
2022-11-22T21:08:16.470Z,19.10
2022-11-22T21:10:47.496Z,24.00
2022-11-22T21:13:18.097Z,22.70
2022-11-22T21:15:48.805Z,24.10
2022-11-22T21:18:25.600Z,23.30
2022-11-22T21:21:01.901Z,18.60
2022-11-22T21:23:33.279Z,9.00
2022-11-22T21:26:04.751Z,19.60
2022-11-22T21:28:38.821Z,20.30
2022-11-22T21:31:10.118Z,19.30
2022-11-22T21:33:40.872Z,19.60
2022-11-22T21:36:12.721Z,17.30
2022-11-22T21:38:43.326Z,18.90
2022-11-22T21:41:38.776Z,18.70
2022-11-22T21:44:07.964Z,17.50
2022-11-22T21:46:38.658Z,17.80
2022-11-22T21:49:09.652Z,19.10
2022-11-22T21:51:40.239Z,21.30
2022-11-22T21:54:11.016Z,18.40
2022-11-22T21:56:41.621Z,17.60
2022-11-22T21:59:13.997Z,19.50
2022-11-22T22:01:45.070Z,15.20
2022-11-22T22:04:16.489Z,18.90
2022-11-22T22:06:48.345Z,19.00
2022-11-22T22:09:19.084Z,21.40
2022-11-22T22:11:49.785Z,14.50
2022-11-22T22:14:20.495Z,14.50
2022-11-22T22:16:51.149Z,23.90
2022-11-22T22:19:22.067Z,17.20
2022-11-22T22:21:52.764Z,15.80
2022-11-22T22:24:23.322Z,18.80
2022-11-22T22:26:54.038Z,19.70
2022-11-22T22:29:24.657Z,15.00
2022-11-22T22:31:55.295Z,18.80
2022-11-22T22:34:25.954Z,19.60
2022-11-22T22:36:59.230Z,17.00
2022-11-22T22:39:30.167Z,16.70
2022-11-22T22:42:01.109Z,17.50
2022-11-22T22:44:32.734Z,25.30
2022-11-22T22:47:03.501Z,17.90
2022-11-22T22:49:34.590Z,18.90
2022-11-22T22:52:06.257Z,18.60
2022-11-22T22:54:36.971Z,21.10
2022-11-22T22:57:07.835Z,9.80
2022-11-22T22:59:38.606Z,19.30
2022-11-22T23:02:09.211Z,16.60
2022-11-22T23:04:40.610Z,18.20
2022-11-22T23:07:11.264Z,19.90
2022-11-22T23:09:41.923Z,14.90
2022-11-22T23:12:12.576Z,17.90
2022-11-22T23:14:43.413Z,19.20
2022-11-22T23:17:14.134Z,17.10
2022-11-22T23:19:44.978Z,16.90
2022-11-22T23:22:15.655Z,16.40
2022-11-22T23:24:46.395Z,17.80
2022-11-22T23:27:17.105Z,16.00
2022-11-22T23:29:47.670Z,19.70
2022-11-22T23:32:18.406Z,16.10
2022-11-22T23:34:49.095Z,16.60
2022-11-22T23:37:19.802Z,15.60
2022-11-22T23:39:51.432Z,15.40
2022-11-22T23:42:22.000Z,17.50
2022-11-22T23:44:52.995Z,16.70
2022-11-22T23:47:23.635Z,18.90
2022-11-22T23:49:54.192Z,17.50
2022-11-22T23:52:24.825Z,14.00
2022-11-22T23:54:55.574Z,19.00
2022-11-22T23:57:26.715Z,17.20
2022-11-22T23:59:57.299Z,15.50
